createdAt,value
2023-03-26T00:00:26.795Z,100.00
2023-03-26T00:06:00.970Z,100.00
2023-03-26T00:11:06.569Z,100.00
2023-03-26T00:16:12.394Z,100.00
2023-03-26T00:21:17.740Z,100.00
2023-03-26T00:26:20.943Z,100.00
2023-03-26T00:31:24.259Z,100.00
2023-03-26T00:36:27.405Z,100.00
2023-03-26T00:41:31.357Z,100.00
2023-03-26T00:46:34.438Z,100.00
2023-03-26T00:51:39.471Z,100.00
2023-03-26T00:56:42.607Z,100.00
2023-03-26T01:01:45.723Z,100.00
2023-03-26T01:06:48.995Z,100.00
2023-03-26T01:11:52.344Z,100.00
2023-03-26T01:16:56.551Z,100.00
2023-03-26T01:22:00.877Z,100.00
2023-03-26T01:27:26.727Z,100.00
2023-03-26T01:32:38.400Z,100.00
2023-03-26T01:37:46.976Z,100.00
2023-03-26T01:43:12.886Z,100.00
2023-03-26T01:48:16.032Z,100.00
2023-03-26T01:53:19.133Z,100.00
2023-03-26T01:58:32.788Z,100.00
2023-03-26T02:03:45.094Z,100.00
2023-03-26T02:08:55.696Z,100.00
2023-03-26T02:13:59.314Z,100.00
2023-03-26T02:19:02.431Z,100.00
2023-03-26T02:24:05.534Z,100.00
2023-03-26T02:29:08.851Z,100.00
2023-03-26T02:34:12.276Z,100.00
2023-03-26T02:39:15.455Z,100.00
2023-03-26T02:44:18.381Z,100.00
2023-03-26T02:49:21.588Z,100.00
2023-03-26T02:54:24.496Z,100.00
2023-03-26T02:59:27.704Z,100.00
2023-03-26T03:04:30.609Z,100.00
2023-03-26T03:09:33.512Z,100.00
2023-03-26T03:14:36.724Z,100.00
2023-03-26T03:19:40.142Z,100.00
2023-03-26T03:24:43.998Z,100.00
2023-03-26T03:29:47.099Z,100.00
2023-03-26T03:34:51.784Z,100.00
2023-03-26T03:39:54.735Z,100.00
2023-03-26T03:44:57.635Z,100.00
2023-03-26T03:50:00.746Z,100.00
2023-03-26T03:55:04.390Z,100.00
2023-03-26T04:00:11.890Z,100.00
2023-03-26T04:05:14.779Z,100.00
2023-03-26T04:10:17.794Z,100.00
2023-03-26T04:15:21.330Z,100.00
2023-03-26T04:20:24.525Z,100.00
2023-03-26T04:25:30.697Z,100.00
2023-03-26T04:30:35.443Z,100.00
2023-03-26T04:35:42.127Z,100.00
2023-03-26T04:40:48.001Z,100.00
2023-03-26T04:45:52.574Z,100.00
2023-03-26T04:50:55.663Z,100.00
2023-03-26T04:56:09.527Z,100.00
2023-03-26T05:01:12.564Z,100.00
2023-03-26T05:06:17.883Z,100.00
2023-03-26T05:11:21.228Z,100.00
2023-03-26T05:16:25.064Z,100.00
2023-03-26T05:21:27.941Z,100.00
2023-03-26T05:26:30.836Z,100.00
2023-03-26T05:31:33.741Z,100.00
2023-03-26T05:36:37.098Z,100.00
2023-03-26T05:41:39.960Z,100.00
2023-03-26T05:46:42.979Z,100.00
2023-03-26T05:51:46.588Z,100.00
2023-03-26T05:56:49.512Z,100.00
2023-03-26T06:01:54.785Z,100.00
2023-03-26T06:06:58.167Z,100.00
2023-03-26T06:12:01.093Z,100.00
2023-03-26T06:17:04.501Z,100.00
2023-03-26T06:22:07.398Z,100.00
2023-03-26T06:27:10.399Z,100.00
2023-03-26T06:32:19.621Z,100.00
2023-03-26T06:37:23.272Z,99.85
2023-03-26T06:43:06.394Z,98.85
2023-03-26T06:47:49.358Z,96.13
2023-03-26T06:52:56.564Z,93.01
2023-03-26T06:57:59.569Z,92.01
2023-03-26T07:03:04.885Z,92.76
2023-03-26T07:08:07.860Z,93.11
2023-03-26T07:13:11.191Z,92.76
2023-03-26T07:18:14.055Z,93.75
2023-03-26T07:23:20.913Z,94.45
2023-03-26T07:28:27.258Z,94.85
2023-03-26T07:34:04.266Z,95.89
2023-03-26T07:39:16.154Z,96.13
2023-03-26T07:44:41.161Z,95.30
2023-03-26T07:49:44.908Z,93.67
2023-03-26T07:54:48.219Z,91.66
2023-03-26T08:00:12.364Z,90.19
2023-03-26T08:05:26.488Z,89.91
2023-03-26T08:10:58.879Z,89.55
2023-03-26T08:16:19.634Z,87.71
2023-03-26T08:21:28.784Z,84.46
2023-03-26T08:26:35.448Z,82.45
2023-03-26T08:31:41.670Z,73.62
2023-03-26T08:36:44.840Z,67.26
2023-03-26T08:42:16.105Z,69.12
2023-03-26T08:47:41.444Z,73.00
2023-03-26T08:53:09.632Z,76.63
2023-03-26T08:58:31.171Z,80.20
2023-03-26T09:03:43.147Z,81.27
2023-03-26T09:09:05.654Z,79.14
2023-03-26T09:14:14.598Z,72.86
2023-03-26T09:19:50.580Z,71.73
2023-03-26T09:25:16.732Z,76.42
2023-03-26T09:30:28.453Z,84.33
2023-03-26T09:35:54.071Z,87.34
2023-03-26T09:41:13.062Z,88.58
2023-03-26T09:46:34.823Z,91.49
2023-03-26T09:51:54.656Z,91.61
2023-03-26T09:57:25.791Z,77.60
2023-03-26T10:02:45.422Z,59.45
2023-03-26T10:08:08.343Z,47.22
2023-03-26T10:13:21.702Z,46.77
2023-03-26T10:18:43.346Z,53.96
2023-03-26T10:24:20.140Z,59.90
2023-03-26T10:29:44.749Z,58.41
2023-03-26T10:35:06.392Z,58.35
2023-03-26T10:40:44.422Z,60.23
2023-03-26T10:46:04.290Z,59.44
2023-03-26T10:51:32.007Z,61.51
2023-03-26T10:56:46.110Z,62.99
2023-03-26T11:01:57.938Z,60.30
2023-03-26T11:07:25.988Z,58.11
2023-03-26T11:13:04.890Z,62.59
2023-03-26T11:18:23.908Z,59.22
2023-03-26T11:23:41.115Z,53.21
2023-03-26T11:29:31.481Z,51.11
2023-03-26T11:35:01.500Z,52.67
2023-03-26T11:40:30.125Z,52.14
2023-03-26T11:45:39.480Z,47.32
2023-03-26T11:50:47.300Z,47.16
2023-03-26T11:56:04.339Z,40.06
2023-03-26T12:01:16.991Z,36.38
2023-03-26T12:06:27.329Z,37.46
2023-03-26T12:11:35.528Z,41.82
2023-03-26T12:16:38.696Z,52.56
2023-03-26T12:21:52.361Z,61.40
2023-03-26T12:27:20.836Z,70.00
2023-03-26T12:32:32.545Z,78.05
2023-03-26T12:37:47.430Z,79.74
2023-03-26T12:44:54.605Z,79.05
2023-03-26T12:48:26.473Z,77.30
2023-03-26T12:53:48.477Z,76.14
2023-03-26T12:59:21.996Z,74.27
2023-03-26T13:04:43.610Z,69.60
2023-03-26T13:10:35.276Z,55.53
2023-03-26T13:15:47.416Z,48.22
2023-03-26T13:21:04.764Z,42.83
2023-03-26T13:26:34.084Z,38.95
2023-03-26T13:31:51.523Z,40.08
2023-03-26T13:37:04.437Z,43.38
2023-03-26T13:42:37.983Z,46.58
2023-03-26T13:47:49.227Z,48.83
2023-03-26T13:53:15.646Z,49.92
2023-03-26T13:58:24.491Z,52.28
2023-03-26T14:03:30.600Z,56.24
2023-03-26T14:08:39.819Z,60.73
2023-03-26T14:13:56.854Z,62.58
2023-03-26T14:19:09.891Z,62.84
2023-03-26T14:24:50.195Z,61.73
2023-03-26T14:30:05.043Z,62.56
2023-03-26T14:35:28.769Z,64.61
2023-03-26T14:41:10.880Z,67.90
2023-03-26T14:46:19.975Z,69.99
2023-03-26T14:51:47.108Z,70.33
2023-03-26T14:57:24.090Z,70.44
2023-03-26T15:03:02.388Z,70.25
2023-03-26T15:08:11.185Z,70.40
2023-03-26T15:13:50.641Z,70.44
2023-03-26T15:19:02.660Z,69.47
2023-03-26T15:24:43.145Z,68.59
2023-03-26T15:30:15.336Z,69.04
2023-03-26T15:35:18.252Z,67.99
2023-03-26T15:40:47.866Z,67.30
2023-03-26T15:46:22.155Z,67.94
2023-03-26T15:51:47.271Z,69.29
2023-03-26T15:57:17.315Z,71.83
2023-03-26T16:02:36.626Z,74.27
2023-03-26T16:07:48.016Z,75.11
2023-03-26T16:13:22.843Z,75.62
2023-03-26T16:18:39.181Z,76.00
2023-03-26T16:23:47.940Z,76.70
2023-03-26T16:28:53.036Z,77.86
2023-03-26T16:34:04.963Z,79.71
2023-03-26T16:39:08.674Z,81.58
2023-03-26T16:44:26.530Z,82.83
2023-03-26T16:49:47.248Z,84.30
2023-03-26T16:55:20.166Z,85.39
2023-03-26T17:00:31.494Z,85.89
2023-03-26T17:05:59.454Z,86.72
2023-03-26T17:11:24.371Z,87.49
2023-03-26T17:17:01.165Z,88.11
2023-03-26T17:22:28.857Z,88.84
2023-03-26T17:27:44.164Z,89.22
2023-03-26T17:32:56.110Z,90.21
2023-03-26T17:38:00.492Z,91.20
2023-03-26T17:43:09.557Z,92.55
2023-03-26T17:48:21.884Z,93.97
2023-03-26T17:53:31.607Z,94.17
2023-03-26T17:58:42.720Z,94.80
2023-03-26T18:03:50.362Z,95.11
2023-03-26T18:09:12.279Z,95.33
2023-03-26T18:14:47.579Z,95.86
2023-03-26T18:19:53.652Z,96.69
2023-03-26T18:25:01.710Z,97.89
2023-03-26T18:30:20.673Z,98.37
2023-03-26T18:35:24.850Z,98.84
2023-03-26T18:40:34.247Z,99.30
2023-03-26T18:45:39.752Z,99.74
2023-03-26T18:50:43.035Z,100.00
2023-03-26T18:55:46.541Z,100.00
2023-03-26T19:00:53.141Z,100.00
2023-03-26T19:05:58.241Z,100.00
2023-03-26T19:11:04.693Z,100.00
2023-03-26T19:16:17.544Z,100.00
2023-03-26T19:21:23.520Z,100.00
2023-03-26T19:26:26.904Z,100.00
2023-03-26T19:31:34.620Z,100.00
2023-03-26T19:37:01.200Z,100.00
2023-03-26T19:42:06.622Z,99.57
2023-03-26T19:47:26.803Z,97.94
2023-03-26T19:52:38.566Z,96.68
2023-03-26T19:57:41.474Z,95.42
2023-03-26T20:02:46.504Z,95.08
2023-03-26T20:07:50.774Z,94.45
2023-03-26T20:12:53.673Z,94.31
2023-03-26T20:17:56.602Z,95.07
2023-03-26T20:22:59.581Z,95.46
2023-03-26T20:28:03.102Z,95.85
2023-03-26T20:33:12.128Z,96.06
2023-03-26T20:38:18.214Z,96.63
2023-03-26T20:43:25.204Z,96.82
2023-03-26T20:48:28.020Z,96.87
2023-03-26T20:53:30.921Z,96.77
2023-03-26T20:58:33.754Z,95.67
2023-03-26T21:03:37.652Z,94.63
2023-03-26T21:08:44.726Z,93.40
2023-03-26T21:13:58.558Z,92.76
2023-03-26T21:19:03.154Z,92.08
2023-03-26T21:24:33.252Z,91.59
2023-03-26T21:29:37.433Z,91.24
2023-03-26T21:34:47.862Z,91.25
2023-03-26T21:40:00.002Z,91.17
2023-03-26T21:45:03.918Z,90.90
2023-03-26T21:50:08.536Z,90.31
2023-03-26T21:55:13.299Z,90.43
2023-03-26T22:00:18.830Z,90.39
2023-03-26T22:05:47.713Z,90.27
2023-03-26T22:10:50.543Z,89.75
2023-03-26T22:15:53.821Z,89.49
2023-03-26T22:20:59.250Z,89.28
2023-03-26T22:26:03.308Z,89.22
2023-03-26T22:31:08.998Z,89.73
2023-03-26T22:36:22.561Z,90.23
2023-03-26T22:41:26.711Z,90.35
2023-03-26T22:46:31.183Z,90.50
2023-03-26T22:51:34.252Z,90.35
2023-03-26T22:56:37.394Z,90.07
2023-03-26T23:01:40.378Z,90.22
2023-03-26T23:06:43.271Z,90.69
2023-03-26T23:11:46.301Z,91.27
2023-03-26T23:16:50.718Z,91.95
2023-03-26T23:21:53.624Z,92.16
2023-03-26T23:26:56.426Z,92.45
2023-03-26T23:32:00.445Z,92.70
2023-03-26T23:37:03.366Z,92.82
2023-03-26T23:42:06.281Z,93.22
2023-03-26T23:47:10.605Z,93.47
2023-03-26T23:52:13.923Z,93.90
2023-03-26T23:57:18.599Z,94.14
